CYIK

Ivujivik Airport

ICAO Code CYIK
IATA Code YIK
Name Ivujivik Airport
Location Ivujivik, Quebec, CA
Elevation 127 Feet / 38.7 Meters
Latitude 62.41722222
Longitude -77.92527778
METAR CYIK 071900Z 14010KT 15SM -RA FEW007 BKN013 BKN018 OVC025 04/01 A3003 RMK ST1ST6SC1SC1 ST TR SN CVR NIL LAST STFD OBS/NEXT 081200UTC SLP174
Extra information Display Charts and CFS
Display NOTAMS
Runway Length Width Surface Elevation
07 3521 ft 100 ft GVL 105 ft
25 3521 ft 100 ft GVL 124 ft